Somers, Montana
Current Conditions -  °F | °C
As of 2:40 PM on Friday 19 Dec 2014 (Local Time) from KGPI Reporting Station
Light Rain Light Rain  
Wind Chill: 34°   Ceiling: 1800
Heat Index: 34°   Visibility: 1.5mi
Dew Point: 34°   Wind: 3mph
Humidity: 100%   Direction: 220°SW
Pressure: 29.86"   Gusts: NA
Location:  48.08°N, 114.23°W
Report Text: KGPI 192140Z 22003KT 1 1/2SM -RA BR BKN018 OVC024 01/01 A2986 RMK AO2 P0004 T00110011
Loading
Personal Weather Stations






























Interactive Weather Map New forecast layout! Learn more

10-Day Weather Forecast

Advertisements
Track Severe Weather on mobile